Date,TemperatureHighF,TemperatureAvgF,TemperatureLowF,DewpointHighF,DewpointAvgF,DewpointLowF,HumidityHigh,HumidityAvg,HumidityLow,PressureMaxIn,PressureMinIn,WindSpeedMaxMPH,WindSpeedAvgMPH,GustSpeedMaxMPH,PrecipitationSumIn
2013-1-1,35,32,26,29,26,19,82,78,72,30.06,29.93,11,6,21,0.02
2013-1-2,26,21,12,19,13,8,87,73,59,30.26,30.03,10,4,16,0.00
2013-1-3,34,21,3,21,14,0,90,75,56,30.27,30.15,16,5,23,0.01
2013-1-4,33,30,28,23,21,20,77,70,63,30.22,30.12,15,9,25,0.00
2013-1-5,36,29,21,24,21,17,87,73,60,30.40,30.18,12,4,18,0.02
2013-1-6,41,35,29,31,28,24,83,74,62,30.18,30.01,10,4,16,0.03
2013-1-7,37,30,17,30,25,15,90,79,67,30.44,30.16,10,4,19,0.00
2013-1-8,40,23,10,29,18,8,91,84,59,30.44,30.34,6,2,8,0.00
2013-1-9,47,32,15,41,26,13,92,80,56,30.42,30.25,23,6,31,0.01
2013-1-10,44,36,28,31,29,24,88,74,57,30.61,30.42,10,2,14,0.00
2013-1-11,41,34,31,34,31,28,95,88,72,30.46,30.11,5,1,7,0.29
2013-1-12,50,38,33,45,36,32,97,93,81,30.17,30.09,7,2,9,0.00
2013-1-13,53,41,33,48,40,32,97,93,85,30.09,29.93,7,2,10,0.00
2013-1-14,51,42,31,50,36,28,97,79,66,30.33,29.89,13,4,23,0.15
2013-1-15,35,32,27,29,27,25,92,80,70,30.38,30.17,6,3,9,0.00
2013-1-16,37,31,28,32,28,25,94,89,65,30.16,29.89,10,3,15,0.19
2013-1-17,36,34,32,28,27,25,82,75,64,30.17,30.00,15,5,20,0.07
2013-1-18,33,25,19,27,15,7,82,65,48,30.50,30.10,14,6,23,0.00
2013-1-19,53,38,19,26,19,14,83,51,26,30.34,29.86,15,7,21,0.08
2013-1-20,45,37,22,31,21,13,68,52,39,30.10,29.74,19,10,33,0.00
2013-1-21,30,23,14,22,16,1,86,74,55,30.10,29.88,14,6,20,0.00
2013-1-22,15,10,8,5,1,-3,78,65,49,30.31,30.01,15,8,22,0.00
2013-1-23,16,11,6,5,2,-1,84,68,52,30.35,30.15,10,4,18,0.00
2013-1-24,20,13,6,8,4,-2,89,67,40,30.57,30.13,13,4,17,0.00
2013-1-25,17,13,9,13,8,1,88,80,67,30.56,30.08,4,1,7,0.00
2013-1-26,29,23,15,21,18,12,89,79,66,30.45,30.10,8,3,16,0.07
2013-1-27,31,24,20,22,17,14,84,72,55,30.59,30.45,7,2,10,0.03
2013-1-28,49,32,26,48,29,22,97,92,81,30.45,30.05,7,3,11,0.48
2013-1-29,56,44,34,54,42,33,98,94,86,30.11,29.91,7,2,9,0.05
2013-1-30,59,44,32,57,43,31,98,95,85,29.91,29.24,19,2,22,1.13
2013-1-31,50,31,24,50,23,12,97,71,55,29.84,29.17,24,13,39,0.10
2013-2-1,25,17,11,19,10,3,88,72,59,30.37,29.82,13,7,24,0.00
2013-2-2,25,17,8,20,12,3,91,79,63,30.36,30.01,10,4,18,0.00
2013-2-3,30,23,18,23,18,13,92,83,65,30.02,29.81,15,4,17,0.06
2013-2-4,30,23,17,23,16,8,92,75,59,30.08,29.89,14,5,24,0.00
2013-2-5,35,28,24,29,24,22,93,89,75,29.96,29.84,14,2,22,0.01
2013-2-6,33,26,10,26,20,7,90,78,61,30.38,29.94,9,4,19,0.00
2013-2-7,37,24,9,26,18,6,90,79,62,30.44,30.18,9,3,15,0.03
2013-2-8,35,31,24,31,27,19,91,85,76,30.18,29.81,13,4,27,0.08
2013-2-9,32,24,12,20,15,8,88,72,50,30.43,30.05,15,5,24,0.00
2013-2-10,42,25,6,27,15,4,90,70,44,30.47,30.15,8,3,13,0.00
2013-2-11,62,42,31,44,31,23,94,70,30,30.16,29.65,20,7,33,0.15
2013-2-12,42,35,21,29,25,18,90,68,55,30.01,29.82,19,8,33,0.00
2013-2-13,39,27,17,31,24,15,95,88,69,29.97,29.72,6,1,7,0.00
2013-2-14,45,35,23,32,27,19,87,73,55,29.99,29.82,12,4,18,0.14
2013-2-15,45,37,29,33,29,23,88,72,44,30.04,29.93,14,6,21,0.00
2013-2-16,32,27,21,26,20,14,92,74,53,30.02,29.91,9,4,14,0.02
2013-2-17,24,19,16,16,11,6,86,71,55,30.26,29.89,15,7,25,0.01
2013-2-18,40,24,7,22,13,3,86,63,37,30.38,30.08,8,3,12,0.01
2013-2-19,41,30,24,37,25,18,92,81,69,30.08,29.65,15,5,24,0.30
2013-2-20,26,21,19,19,13,10,85,71,61,30.20,29.89,16,9,24,0.00
2013-2-21,28,22,17,18,14,11,87,72,60,30.38,30.17,13,5,21,0.00
2013-2-22,29,24,17,24,20,14,91,85,69,30.38,30.17,8,2,12,0.00
2013-2-23,42,31,26,36,28,24,92,89,80,30.17,29.86,7,2,8,0.05
2013-2-24,34,30,27,29,24,21,94,79,70,30.14,29.86,12,4,21,0.00
2013-2-25,44,32,24,26,22,19,87,69,43,30.24,30.14,7,2,13,0.00
2013-2-26,38,32,23,32,27,20,92,81,63,30.19,29.72,12,4,19,0.42
2013-2-27,45,36,31,38,33,29,95,86,69,29.72,29.61,11,4,17,0.27
2013-2-28,38,35,32,32,30,28,88,81,73,29.76,29.63,15,5,21,0.03
2013-3-1,36,32,28,30,26,22,88,78,69,29.94,29.75,13,7,19,0.02
2013-3-2,29,27,25,22,21,19,83,78,67,29.93,29.87,12,5,16,0.00
2013-3-3,30,27,23,22,20,16,81,75,63,29.98,29.87,12,5,19,0.00
2013-3-4,34,27,22,21,18,14,81,70,55,30.08,29.97,14,5,21,0.00
2013-3-5,42,32,19,26,20,14,83,63,33,30.11,29.80,11,5,13,0.00
2013-3-6,39,34,29,32,28,26,94,80,65,30.09,29.75,14,6,19,0.25
2013-3-7,40,37,34,31,29,26,81,72,61,30.23,30.08,13,6,19,0.00
2013-3-8,44,36,28,30,26,23,82,68,52,30.37,30.20,17,8,25,0.00
2013-3-9,56,35,18,31,24,16,91,69,27,30.42,30.27,7,1,10,0.01
2013-3-10,64,44,24,31,28,21,90,58,27,30.30,30.13,11,4,16,0.00
2013-3-11,55,48,40,47,34,27,87,59,42,30.13,29.81,13,5,22,0.05
2013-3-12,51,42,37,47,37,27,94,81,68,29.98,29.74,12,5,19,0.71
2013-3-13,39,32,27,31,26,19,90,77,49,30.08,29.92,19,6,25,0.05
2013-3-14,36,30,25,22,19,16,85,64,44,30.16,30.06,16,9,25,0.00
2013-3-15,48,37,22,35,26,17,85,66,50,30.13,29.81,16,5,22,0.00
2013-3-16,40,32,30,35,30,28,94,90,81,29.95,29.69,6,3,9,0.17
2013-3-17,35,32,27,31,26,22,94,78,67,30.26,29.94,10,4,17,0.02
2013-3-18,32,29,26,27,24,22,91,84,65,30.27,29.88,11,5,22,0.00
2013-3-19,46,36,29,32,26,17,95,70,34,29.96,29.75,22,9,33,0.66
2013-3-20,40,33,26,28,20,16,89,62,42,29.96,29.81,19,9,27,0.00
2013-3-21,29,24,18,20,14,10,87,67,50,29.90,29.82,13,6,21,0.00
2013-3-22,35,29,24,23,20,19,85,72,56,30.04,29.88,14,7,22,0.01
2013-3-23,45,33,26,27,23,21,81,67,43,30.05,29.97,13,5,24,0.00
2013-3-24,41,31,18,28,22,16,91,71,50,30.03,29.64,9,3,12,0.00
2013-3-25,34,30,28,30,28,26,95,91,86,29.73,29.54,4,1,6,0.43
2013-3-26,44,35,27,33,29,25,95,80,60,30.03,29.73,16,5,29,0.12
2013-3-27,44,36,31,33,30,27,90,78,58,30.14,30.02,16,7,25,0.06
2013-3-28,41,37,33,35,31,30,88,80,69,30.26,30.08,11,5,16,0.04
2013-3-29,50,40,30,36,31,26,87,70,45,30.26,30.16,12,3,15,0.00
2013-3-30,55,37,20,31,23,15,93,64,23,30.26,30.10,10,2,13,0.00
2013-3-31,44,35,27,42,32,24,95,89,74,30.11,29.75,6,1,9,0.39
2013-4-1,47,41,31,41,30,14,88,67,36,29.99,29.71,14,7,27,0.03
2013-4-2,40,33,28,20,16,12,66,51,35,30.19,29.99,15,8,23,0.00
2013-4-3,39,31,21,26,16,9,82,55,36,30.42,30.17,15,7,21,0.00
2013-4-4,50,33,16,23,14,6,87,52,19,30.42,30.03,10,4,16,0.00
2013-4-5,56,42,26,33,24,16,84,50,28,30.13,29.90,17,6,26,0.00
2013-4-6,57,41,24,26,21,12,84,49,20,30.32,30.13,11,4,15,0.00
2013-4-7,70,52,36,51,36,23,83,54,33,30.17,29.88,15,5,21,0.00
2013-4-8,77,58,37,53,44,35,95,67,33,30.06,29.90,13,3,18,0.01
2013-4-9,81,67,50,55,52,44,81,60,37,30.05,29.86,13,5,19,0.00
2013-4-10,83,71,52,61,56,48,85,61,41,29.90,29.73,23,8,31,0.07
2013-4-11,79,60,50,62,53,46,95,80,49,29.84,29.72,12,5,19,0.00
2013-4-12,70,53,45,60,46,34,95,79,45,29.81,29.57,19,5,28,0.74
2013-4-13,58,48,36,37,34,30,83,59,40,29.96,29.80,15,7,24,0.00
2013-4-14,64,49,34,43,33,26,87,59,30,30.15,29.96,13,3,16,0.00
2013-4-15,64,57,49,50,46,41,80,67,56,30.19,30.08,16,6,31,0.00
2013-4-16,79,64,55,60,55,50,92,74,49,30.18,30.00,18,7,31,0.74
2013-4-17,68,58,50,57,53,48,97,85,61,30.22,30.10,9,2,11,0.01
2013-4-18,75,63,58,64,56,47,87,77,59,30.19,29.85,16,6,27,0.00
2013-4-19,75,61,46,62,53,36,88,74,61,29.85,29.46,18,9,27,0.52
2013-4-20,49,42,35,36,29,24,81,60,39,30.39,29.79,20,10,25,0.01
2013-4-21,52,39,22,28,23,20,91,57,31,30.61,30.39,11,4,16,0.00
2013-4-22,59,46,32,33,29,24,83,53,29,30.56,30.36,12,5,19,0.00
2013-4-23,66,48,27,43,36,24,92,65,34,30.38,30.07,9,3,13,0.00
2013-4-24,75,52,36,56,44,34,92,76,47,30.09,29.69,21,7,31,0.28
2013-4-25,62,48,38,36,31,22,80,56,24,30.33,30.09,16,6,22,0.00
2013-4-26,64,48,31,38,33,24,90,60,25,30.47,30.33,8,2,12,0.00
2013-4-27,71,51,28,44,35,25,91,60,28,30.43,30.24,11,3,17,0.00
2013-4-28,60,48,36,47,42,34,90,80,57,30.24,30.09,11,4,21,0.16
2013-4-29,54,51,48,52,48,45,95,88,83,30.09,30.03,9,2,13,0.04
2013-4-30,64,55,51,56,51,48,94,86,73,30.26,30.09,9,3,16,0.00
2013-5-1,73,59,45,50,40,26,91,56,19,30.37,30.26,10,3,18,0.01
2013-5-2,74,56,35,47,40,32,94,60,24,30.41,30.27,9,3,14,0.00
2013-5-3,70,55,36,48,41,34,95,63,40,30.35,30.23,11,4,17,0.00
2013-5-4,69,55,36,49,42,33,93,64,41,30.29,30.13,9,4,18,0.00
2013-5-5,71,54,35,45,36,21,94,59,16,30.20,30.08,11,4,19,0.00
2013-5-6,63,51,33,54,45,31,94,82,64,30.17,30.06,8,3,12,0.03
2013-5-7,65,58,55,58,53,51,92,85,71,30.07,29.95,11,6,15,0.38
2013-5-8,70,58,51,58,53,49,97,83,56,29.98,29.88,10,3,16,1.17
2013-5-9,73,59,50,60,53,48,97,82,55,29.99,29.88,11,3,16,0.01
2013-5-10,75,59,46,64,54,45,97,87,64,30.00,29.82,13,2,17,0.58
2013-5-11,65,60,56,59,56,49,96,87,72,29.83,29.73,13,5,20,0.25
2013-5-12,56,49,40,49,34,26,82,59,38,30.01,29.75,18,8,25,0.00
2013-5-13,51,42,31,34,30,25,88,62,40,30.18,30.00,13,5,25,0.00
2013-5-14,59,42,24,42,32,22,93,70,32,30.23,30.02,11,2,13,0.00
2013-5-15,87,62,40,63,51,38,93,71,40,30.02,29.68,17,5,23,0.04
2013-5-16,78,68,57,62,56,44,96,69,32,29.93,29.73,14,6,23,0.05
2013-5-17,81,66,47,60,54,45,96,70,37,30.12,29.93,7,2,10,0.00
2013-5-18,71,60,49,61,53,45,88,78,60,30.17,30.10,9,3,14,0.00
2013-5-19,62,58,55,60,56,52,94,91,86,30.18,30.06,5,1,10,0.00
2013-5-20,87,70,60,69,63,59,96,81,54,30.08,29.92,8,2,13,0.00
2013-5-21,91,74,59,71,64,57,98,75,41,29.95,29.78,10,4,17,0.01
2013-5-22,91,72,60,67,62,58,93,74,39,29.86,29.74,19,4,20,0.11
2013-5-23,83,67,60,67,60,56,96,80,45,29.83,29.69,18,4,21,0.08
2013-5-24,62,48,43,56,41,32,88,75,60,30.22,29.76,16,8,25,0.00
2013-5-25,61,50,39,40,35,32,81,60,37,30.25,30.14,19,9,31,0.00
2013-5-26,66,53,40,42,37,33,85,56,32,30.25,30.16,13,5,20,0.00
2013-5-27,67,52,31,52,41,29,94,71,37,30.30,30.16,8,2,15,0.00
2013-5-28,70,57,50,64,54,48,96,91,81,30.19,30.03,11,2,12,0.58
2013-5-29,87,71,58,68,61,55,98,75,38,30.08,30.02,13,5,19,0.01
2013-5-30,91,71,53,71,61,52,96,73,30,30.17,30.06,8,2,12,0.00
2013-5-31,92,74,58,68,62,56,96,70,33,30.11,29.95,9,3,14,0.00
2013-6-1,92,73,58,69,63,56,94,74,41,29.99,29.83,12,3,18,0.00
2013-6-2,83,71,62,68,62,58,95,76,46,29.83,29.77,13,3,19,0.01
2013-6-3,72,63,47,62,57,44,95,80,59,30.00,29.81,10,3,14,0.00
2013-6-4,73,58,37,52,45,35,92,64,38,30.13,30.00,10,3,13,0.00
2013-6-5,79,62,41,60,50,39,96,69,47,30.18,29.99,9,3,13,0.00
2013-6-6,68,60,57,60,56,54,96,86,68,30.00,29.82,12,2,16,0.76
2013-6-7,64,62,61,62,60,58,96,93,88,29.82,29.68,6,2,10,0.07
2013-6-8,71,61,52,59,55,50,93,80,60,30.11,29.75,9,4,13,0.01
2013-6-9,82,66,48,66,59,47,97,79,55,30.18,30.06,8,2,12,0.00
2013-6-10,78,68,60,70,64,58,93,88,76,30.07,29.74,8,2,14,0.38
2013-6-11,76,67,58,66,61,56,96,83,67,29.85,29.75,12,4,20,0.01
2013-6-12,83,70,59,70,63,56,95,81,53,29.87,29.75,9,2,16,0.01
2013-6-13,77,67,62,67,62,53,95,83,69,29.75,29.48,18,6,21,0.65
2013-6-14,74,65,56,63,55,50,84,71,50,30.00,29.67,12,6,21,0.00
2013-6-15,76,64,48,58,50,41,95,65,30,30.09,29.99,10,4,14,0.00
2013-6-16,78,66,54,67,60,51,91,81,63,30.03,29.87,14,5,24,0.08
2013-6-17,83,72,60,67,62,57,91,72,43,29.93,29.85,8,3,12,0.01
2013-6-18,76,66,57,68,62,55,96,85,70,29.92,29.78,11,2,13,0.60
2013-6-19,76,63,50,58,53,47,93,73,40,30.15,29.91,8,3,13,0.00
2013-6-20,83,64,45,67,57,44,95,79,51,30.24,30.15,7,2,12,0.00
2013-6-21,85,70,54,68,62,53,97,77,51,30.25,30.16,7,2,11,0.00
2013-6-22,89,72,55,71,63,53,95,76,48,30.20,30.05,7,2,13,0.00
2013-6-23,89,73,60,73,66,58,96,81,54,30.15,30.02,8,2,12,0.00
2013-6-24,86,74,63,74,66,61,96,79,49,30.11,29.98,8,3,14,0.04
2013-6-25,90,74,62,71,64,59,96,74,45,30.02,29.83,24,5,37,0.11
2013-6-26,84,71,62,72,66,60,93,83,63,29.94,29.79,12,3,15,0.24
2013-6-27,77,67,61,70,65,60,97,92,78,29.81,29.58,6,1,10,0.96
2013-6-28,82,69,58,71,64,55,93,83,64,29.59,29.46,9,3,18,0.10
2013-6-29,82,68,57,68,61,55,95,80,53,29.69,29.50,10,3,16,0.01
2013-6-30,86,70,56,74,63,54,97,82,57,29.83,29.68,8,1,11,0.01
2013-7-1,83,72,65,73,67,62,93,83,65,29.93,29.81,8,3,13,0.17
2013-7-2,85,73,66,73,68,63,96,86,67,30.08,29.92,9,3,18,0.19
2013-7-3,88,73,65,74,68,63,96,86,59,30.17,30.07,8,2,11,0.21
2013-7-4,89,76,65,74,69,63,97,81,54,30.19,30.10,8,2,14,0.01
2013-7-5,90,75,64,75,69,62,97,83,57,30.15,30.06,10,3,15,0.03
2013-7-6,91,77,67,75,69,65,97,81,50,30.16,30.00,8,3,13,0.00
2013-7-7,89,72,65,74,66,62,95,85,57,30.06,29.98,14,2,18,0.26
2013-7-8,84,71,63,70,65,62,97,83,54,30.10,30.02,9,2,13,0.01
2013-7-9,85,72,66,74,68,64,95,87,66,30.07,29.95,8,2,12,0.02
2013-7-10,87,73,65,77,68,62,94,84,64,29.96,29.79,15,4,24,0.57
2013-7-11,80,69,59,68,62,57,95,81,53,29.96,29.82,7,2,13,0.00
2013-7-12,76,66,58,66,61,56,94,85,73,30.09,29.94,10,4,14,0.00
2013-7-13,83,69,63,71,64,60,94,86,63,30.25,30.07,6,2,10,0.00
2013-7-14,89,75,65,73,68,62,96,80,54,30.30,30.24,11,4,17,0.00
2013-7-15,92,76,62,74,68,60,96,76,48,30.30,30.20,7,2,11,0.00
2013-7-16,90,79,68,76,70,65,93,76,49,30.27,30.17,7,2,12,0.00
2013-7-17,92,79,67,76,70,65,95,76,51,30.24,30.09,9,1,13,0.00
2013-7-18,95,80,67,79,72,64,96,79,53,30.14,29.97,6,1,8,0.00
2013-7-19,94,80,69,77,71,66,94,77,51,30.00,29.83,11,4,18,0.00
2013-7-20,85,76,67,74,69,63,95,80,61,29.88,29.78,12,4,18,0.34
2013-7-21,87,72,64,74,66,61,95,82,59,29.94,29.85,13,2,14,0.66
2013-7-22,81,70,65,72,68,64,98,91,74,29.93,29.75,4,1,8,0.35
2013-7-23,83,73,66,69,67,62,97,82,59,29.74,29.64,10,2,19,0.01
2013-7-24,75,66,52,62,58,49,91,74,51,29.96,29.68,12,4,16,0.00
2013-7-25,74,60,47,59,52,46,94,78,51,30.08,29.96,8,3,14,0.00
2013-7-26,83,64,46,63,55,44,96,75,43,30.11,30.00,6,1,10,0.01
2013-7-27,74,63,52,68,60,50,96,88,78,30.02,29.86,5,1,8,0.06
2013-7-28,81,68,55,67,59,52,97,76,40,30.01,29.84,11,3,17,0.13
2013-7-29,76,62,48,59,53,46,95,75,44,30.17,30.01,10,3,14,0.01
2013-7-30,79,63,46,62,54,45,96,76,47,30.23,30.14,9,2,14,0.00
2013-7-31,83,65,50,67,58,48,96,80,49,30.16,29.96,8,1,13,0.01
2013-8-1,80,69,59,70,62,56,93,81,53,29.95,29.81,8,2,14,0.00
2013-8-2,80,66,52,65,56,51,96,73,42,29.95,29.87,13,4,22,0.01
2013-8-3,76,68,56,66,62,53,91,80,69,29.95,29.88,12,5,19,0.00
2013-8-4,74,62,47,60,52,45,97,73,46,30.05,29.94,13,4,19,0.01
2013-8-5,76,62,45,59,52,43,95,73,41,30.11,30.01,7,1,11,0.00
2013-8-6,81,64,50,65,57,48,94,79,54,30.04,29.99,9,2,14,0.00
2013-8-7,78,68,61,70,64,58,96,88,78,30.04,29.94,19,1,25,0.04
2013-8-8,85,70,60,75,67,59,98,92,70,29.99,29.92,8,2,13,0.09
2013-8-9,80,72,63,74,69,61,97,90,77,29.96,29.84,9,2,13,0.02
2013-8-10,82,68,59,68,62,57,97,81,52,30.08,29.96,8,2,11,0.00
2013-8-11,84,68,57,70,63,55,97,84,58,30.11,29.98,5,1,9,0.01
2013-8-12,83,72,63,71,65,60,97,82,54,30.03,29.88,7,1,11,0.01
2013-8-13,79,68,59,70,62,50,95,82,61,29.91,29.74,10,4,16,0.00
2013-8-14,69,58,47,55,50,44,91,75,56,30.12,29.90,9,4,15,0.00
2013-8-15,66,47,41,57,44,39,96,90,72,30.20,30.11,6,1,9,0.01
2013-8-16,79,60,43,62,52,42,96,76,41,30.19,30.13,5,1,8,0.00
2013-8-17,77,61,46,63,54,44,96,78,47,30.27,30.19,8,1,14,0.00
2013-8-18,70,60,56,62,57,54,95,89,74,30.26,30.16,5,1,7,0.01
2013-8-19,75,63,56,68,60,55,96,90,78,30.17,30.05,8,1,9,0.00
2013-8-20,84,68,57,68,61,54,98,80,43,30.18,30.09,4,1,7,0.00
2013-8-21,84,68,52,72,62,51,97,83,57,30.20,30.05,5,1,7,0.00
2013-8-22,84,72,63,71,65,60,95,80,56,30.07,29.93,9,3,14,0.01
2013-8-23,78,67,56,67,62,54,96,84,51,30.14,29.94,7,1,10,0.00
2013-8-24,81,63,50,63,54,45,97,77,31,30.33,30.14,5,1,8,0.00
2013-8-25,84,63,45,65,55,44,96,78,49,30.39,30.23,8,2,11,0.00
2013-8-26,85,70,53,67,60,50,96,75,48,30.25,29.97,10,4,15,0.00
2013-8-27,85,75,67,73,68,63,89,80,63,29.97,29.87,11,3,18,0.00
2013-8-28,72,69,67,69,67,64,96,93,85,29.92,29.80,6,1,11,0.01
2013-8-29,85,73,63,72,67,60,97,84,54,30.01,29.87,4,1,6,0.00
2013-8-30,89,72,59,73,65,58,97,81,48,30.00,29.81,8,2,11,0.00
2013-8-31,88,73,62,75,67,60,97,83,54,29.84,29.74,8,2,12,0.00
2013-9-1,82,70,61,73,66,60,97,87,65,29.83,29.76,6,1,11,0.00
2013-9-2,86,72,62,73,66,60,97,82,53,29.80,29.69,12,3,18,0.00
2013-9-3,74,65,56,63,58,53,97,80,53,30.00,29.75,11,3,18,0.00
2013-9-4,78,62,47,60,54,46,96,76,44,30.09,29.99,8,3,13,0.01
2013-9-5,73,62,47,62,53,44,93,75,39,30.18,30.02,11,4,18,0.00
2013-9-6,72,54,39,55,46,37,95,76,44,30.28,30.14,4,1,7,0.00
2013-9-7,80,59,40,60,49,38,96,74,29,30.16,29.94,7,2,11,0.00
2013-9-8,79,67,54,68,60,51,93,80,62,30.06,29.90,10,3,13,0.00
2013-9-9,73,60,46,62,54,45,95,82,58,30.18,30.06,8,2,13,0.00
2013-9-10,91,72,56,76,65,54,94,82,59,30.15,30.05,11,4,15,0.00
2013-9-11,91,74,65,77,69,63,96,85,60,30.12,29.99,8,2,13,0.00
2013-9-12,87,70,61,73,65,58,95,86,60,29.99,29.74,13,4,19,0.01
2013-9-13,67,59,48,58,53,44,95,81,64,29.98,29.74,11,4,14,0.00
2013-9-14,64,51,40,50,44,38,93,77,54,30.18,29.98,8,2,11,0.00
2013-9-15,74,54,36,61,47,34,96,81,54,30.23,30.06,7,2,12,0.00
2013-9-16,68,58,52,57,53,50,94,83,58,30.28,30.06,9,2,16,0.00
2013-9-17,68,50,37,51,42,35,94,75,37,30.44,30.28,7,2,10,0.00
2013-9-18,73,50,32,53,42,30,95,78,43,30.34,30.16,9,2,14,0.00
2013-9-19,70,54,42,63,50,40,96,88,74,30.19,30.07,5,1,7,0.00
2013-9-20,80,61,46,66,56,44,97,85,60,30.08,29.89,10,2,15,0.00
2013-9-21,66,60,54,62,58,52,95,91,86,29.89,29.65,13,2,17,0.00
2013-9-22,63,55,46,54,49,44,97,82,58,29.99,29.74,10,3,16,0.00
2013-9-23,60,51,37,47,43,35,92,75,57,30.12,29.99,9,3,14,0.00
2013-9-24,72,48,32,55,41,30,96,80,38,30.16,29.98,3,0,6,0.07
2013-9-25,71,50,35,56,44,33,96,82,49,30.02,29.91,5,0,8,0.01
2013-9-26,75,54,38,55,45,36,96,77,31,30.11,29.97,6,1,10,0.00
2013-9-27,69,53,41,59,48,39,97,85,59,30.24,30.11,7,2,13,0.00
2013-9-28,66,53,41,58,48,40,97,85,61,30.32,30.23,9,1,10,0.01
2013-9-29,72,52,38,56,46,37,97,82,50,30.23,30.05,7,2,12,0.01
2013-9-30,76,57,43,60,50,41,96,81,48,30.08,29.98,6,1,9,0.00
2013-10-1,77,61,50,63,55,48,97,82,54,30.08,29.98,11,2,14,0.01
2013-10-2,80,65,49,65,58,47,96,79,53,30.07,30.01,11,4,18,0.00
2013-10-3,79,63,49,67,58,48,98,85,64,30.12,30.02,7,1,9,0.01
2013-10-4,83,68,56,68,61,55,96,82,52,30.09,29.99,10,2,15,0.17
2013-10-5,85,68,60,70,64,59,97,87,57,30.08,29.97,10,1,11,0.37
2013-10-6,88,72,60,68,62,58,97,75,42,29.99,29.80,13,5,21,0.01
2013-10-7,72,60,47,64,53,42,91,77,56,30.08,29.67,15,6,21,0.70
2013-10-8,66,52,38,49,43,36,94,74,44,30.32,30.07,10,2,17,0.00
2013-10-9,62,48,34,50,40,33,96,76,45,30.39,30.28,8,2,12,0.01
2013-10-10,57,48,42,49,44,39,94,85,65,30.29,30.11,7,3,11,0.25
2013-10-11,54,50,47,52,48,45,95,93,91,30.10,30.05,9,6,13,0.75
2013-10-12,70,60,52,60,54,49,94,80,58,30.20,30.07,8,4,12,0.00
2013-10-13,60,55,52,54,52,50,94,91,77,30.31,30.18,7,1,7,0.05
2013-10-14,60,55,52,56,52,50,95,91,86,30.33,30.24,3,0,4,0.00
2013-10-15,71,59,50,58,53,48,96,83,61,30.25,30.05,9,2,12,0.00
2013-10-16,66,55,46,58,51,44,93,85,70,30.05,29.88,6,2,8,0.00
2013-10-17,61,57,52,57,52,46,94,85,78,29.90,29.64,17,3,26,0.17
2013-10-18,61,51,38,47,42,36,90,71,46,30.01,29.85,13,5,26,0.00
2013-10-19,53,42,30,47,39,28,96,87,75,30.00,29.78,15,2,24,0.03
2013-10-20,59,46,35,40,36,32,90,70,41,30.08,29.93,13,5,18,0.00
2013-10-21,68,45,28,42,36,26,95,73,35,30.13,29.90,10,3,14,0.01
2013-10-22,53,44,31,46,36,27,94,75,38,29.91,29.83,14,4,20,0.00
2013-10-23,45,39,32,39,35,30,90,84,76,29.91,29.73,13,2,17,0.04
2013-10-24,44,38,31,34,31,27,88,76,53,30.13,29.91,16,5,21,0.03
2013-10-25,47,38,26,35,31,24,91,77,54,30.32,30.13,12,5,15,0.00
2013-10-26,54,38,21,32,25,18,93,64,30,30.29,29.93,17,6,25,0.01
2013-10-27,51,42,26,37,32,24,90,68,45,30.15,29.95,11,4,18,0.00
2013-10-28,61,38,23,38,29,20,93,76,38,30.32,30.14,7,1,11,0.00
2013-10-29,60,42,26,42,35,24,94,78,45,30.42,30.30,5,1,7,0.00
2013-10-30,68,47,33,52,41,31,93,81,54,30.31,30.13,9,1,14,0.00
2013-10-31,62,54,47,57,51,45,94,90,83,30.15,29.62,7,2,11,0.00
2013-11-1,66,57,37,58,48,35,93,74,44,29.69,29.40,20,8,28,0.00
2013-11-2,56,44,32,46,38,30,95,81,57,29.90,29.65,15,4,23,0.00
2013-11-3,49,40,26,41,32,23,89,74,43,30.48,29.90,11,5,15,0.00
2013-11-4,44,32,19,27,22,17,92,70,42,30.65,30.48,7,2,11,0.00
2013-11-5,52,39,29,33,28,23,88,67,33,30.62,30.43,8,2,15,0.00
2013-11-6,67,48,30,50,41,28,91,78,50,30.44,29.95,13,4,19,0.00
2013-11-7,59,48,38,50,40,24,92,75,54,30.08,29.85,14,5,23,0.00
2013-11-8,44,37,24,31,27,21,89,68,50,30.31,30.03,14,6,24,0.00
2013-11-9,54,36,20,31,26,18,91,70,36,30.33,29.98,13,4,21,0.00
2013-11-10,53,46,40,37,32,27,66,58,44,30.23,29.94,18,9,29,0.00
2013-11-11,55,43,28,38,28,18,89,61,25,30.27,30.02,13,6,23,0.00
2013-11-12,44,32,26,39,24,17,91,74,51,30.44,30.03,15,7,24,0.00
2013-11-13,36,31,26,24,21,19,79,68,54,30.52,30.37,12,6,20,0.00
2013-11-14,54,39,29,21,16,0,70,43,11,30.37,30.21,14,7,20,0.00
2013-11-15,57,40,26,40,24,16,88,58,20,30.25,30.17,14,4,17,0.00
2013-11-16,59,46,32,45,40,29,95,81,58,30.29,30.16,8,2,12,0.00
2013-11-17,56,51,46,53,48,43,92,90,87,30.16,29.59,18,4,28,0.00
2013-11-18,57,50,40,49,35,27,90,56,35,29.98,29.63,22,12,33,0.00
2013-11-19,40,35,23,29,26,20,88,69,60,30.42,29.98,14,6,22,0.00
2013-11-20,44,29,17,25,19,11,92,70,28,30.58,30.41,7,2,13,0.00
2013-11-21,48,36,22,37,30,18,88,80,64,30.57,30.35,10,2,16,0.00
2013-11-22,53,43,38,48,40,33,92,87,76,30.35,30.04,15,4,26,0.00
2013-11-23,40,32,20,33,23,9,84,69,48,30.28,30.07,17,10,27,0.00
2013-11-24,23,20,17,16,11,8,86,69,59,30.53,30.28,13,6,21,0.00
2013-11-25,35,23,11,20,11,7,85,62,34,30.54,30.29,9,3,13,0.00
2013-11-26,32,30,27,28,26,19,93,87,62,30.30,29.70,4,0,6,0.00
2013-11-27,33,28,23,30,23,16,94,81,72,30.06,29.64,16,2,24,0.00
2013-11-28,28,24,19,22,18,13,90,77,62,30.48,30.06,11,4,19,0.00
2013-11-29,32,24,14,25,20,12,92,86,69,30.74,30.47,9,1,11,0.00
2013-11-30,33,21,11,25,17,8,91,85,70,30.74,30.38,9,2,12,0.00
2013-12-1,40,28,16,33,24,14,91,86,69,30.37,30.03,7,2,10,0.00
2013-12-2,48,37,28,39,32,26,91,84,65,30.03,29.85,2,0,4,0.00
2013-12-3,51,36,28,41,33,26,93,87,68,30.00,29.87,6,1,8,0.00
2013-12-4,51,36,27,42,33,25,96,89,71,30.10,30.00,6,1,9,0.00
2013-12-5,52,45,37,49,43,35,96,93,86,30.05,29.91,8,2,9,0.00
2013-12-6,46,36,29,44,33,27,93,90,84,30.23,29.92,14,5,18,0.00
2013-12-7,31,28,22,28,23,16,94,81,70,30.60,30.20,11,5,18,0.00
2013-12-8,24,21,17,22,18,14,92,86,78,30.60,30.30,7,2,10,0.00
2013-12-9,38,31,24,35,28,22,93,88,76,30.31,30.05,18,6,26,0.00
2013-12-10,34,29,24,28,20,13,85,71,54,30.21,30.00,19,8,29,0.00
2013-12-11,31,24,18,21,14,11,89,66,45,30.36,30.20,16,8,23,0.00
2013-12-12,24,20,16,18,8,3,80,61,46,30.45,30.23,14,8,27,0.00
2013-12-13,35,26,20,21,14,6,87,62,49,30.32,30.21,13,6,20,0.00
2013-12-14,31,27,24,28,24,20,93,89,78,30.32,29.76,4,1,7,0.00
2013-12-15,36,29,25,33,24,13,94,82,59,29.98,29.64,18,9,31,0.00
2013-12-16,26,22,18,20,16,11,87,75,57,30.18,29.98,14,4,24,0.00
2013-12-17,38,27,22,31,23,19,92,86,72,30.15,29.95,11,2,14,0.00
2013-12-18,31,28,25,25,22,19,83,76,68,30.21,30.02,12,6,25,0.00
2013-12-19,51,33,15,36,26,12,92,75,52,30.15,30.06,15,4,24,0.00
2013-12-20,48,39,28,44,34,26,92,82,66,30.10,29.95,7,3,10,0.00
2013-12-21,47,42,36,45,40,34,96,93,87,29.97,29.81,6,2,8,0.00
2013-12-22,64,55,40,57,50,39,98,86,68,29.93,29.70,16,5,22,0.00
2013-12-23,56,43,32,50,37,21,94,81,64,30.25,29.90,13,5,16,0.00
2013-12-24,32,25,15,25,16,8,85,69,53,30.51,30.21,17,7,29,0.00
2013-12-25,26,20,14,16,12,8,86,70,56,30.57,30.33,11,3,16,0.00
2013-12-26,36,29,23,27,20,15,88,70,54,30.37,30.22,15,4,25,0.00
2013-12-27,42,28,16,26,20,13,90,72,36,30.39,30.31,15,3,19,0.00
2013-12-28,55,37,20,30,25,17,90,64,37,30.32,30.09,12,5,21,0.00
2013-12-29,42,36,33,38,32,26,95,86,61,30.09,29.62,12,3,20,0.00
2013-12-30,42,30,23,38,24,14,88,79,67,30.20,29.82,13,6,24,0.00
2013-12-31,28,24,21,24,19,15,90,79,69,30.31,30.09,22,7,42,0.00
2014-1-1,42,30,24,28,22,18,86,73,50,30.36,30.14,8,4,14,0.00
2014-1-2,25,22,16,22,19,10,92,89,77,30.14,29.71,15,4,17,0.00